Time;durP1;ratioP1;P1;durP2;ratioP2;P2;SDS_P1;SDS_P2;PMS_P1;PMS_P2;Temp;Humidity;BMP_temperature;BMP_pressure;BME280_temperature;BME280_humidity;BME280_pressure;Samples;Min_cycle;Max_cycle;Signal;HPM_P1;HPM_P2
2022/10/04 00:01:46;;;;;;;19.98;3.08;;;;;;;;;;5031833;28;20036;-68
2022/10/04 00:04:17;;;;;;;14.00;2.22;;;;;;;;;;5033075;28;20026;-69
2022/10/04 00:07:13;;;;;;;16.02;2.83;;;;;;;;;;5031548;28;20485;-69
2022/10/04 00:09:41;;;;;;;12.93;1.80;;;;;;;;;;5030570;28;20033;-68
2022/10/04 00:12:24;;;;;;;15.52;2.33;;;;;;;;;;5032802;28;20036;-68
2022/10/04 00:14:53;;;;;;;11.18;1.92;;;;;;;;;;5032987;28;20021;-69
2022/10/04 00:17:26;;;;;;;13.60;2.15;;;;;;;;;;5032996;28;20025;-69
2022/10/04 00:19:53;;;;;;;14.65;2.22;;;;;;;;;;5031805;28;20068;-70
2022/10/04 00:22:27;;;;;;;11.90;2.22;;;;;;;;;;5047692;28;20021;-68
2022/10/04 00:25:12;;;;;;;17.27;2.20;;;;;;;;;;5052450;28;20028;-68
2022/10/04 00:27:40;;;;;;;9.05;2.10;;;;;;;;;;5052575;28;20024;-69
2022/10/04 00:30:05;;;;;;;12.90;2.45;;;;;;;;;;5052624;28;20025;-70
2022/10/04 00:32:58;;;;;;;13.05;2.03;;;;;;;;;;5052712;28;20039;-69
2022/10/04 00:35:23;;;;;;;11.90;2.13;;;;;;;;;;5052625;28;20100;-70
2022/10/04 00:38:02;;;;;;;15.15;2.50;;;;;;;;;;5052178;28;20176;-70
2022/10/04 00:40:34;;;;;;;15.65;2.80;;;;;;;;;;5052537;28;20025;-70
2022/10/04 00:43:07;;;;;;;14.90;2.58;;;;;;;;;;5051011;28;20029;-70
2022/10/04 00:45:37;;;;;;;13.43;2.30;;;;;;;;;;5052333;28;20039;-70
2022/10/04 00:48:35;;;;;;;;;;;;;;;;;;5052794;28;20079;-71
2022/10/04 00:51:06;;;;;;;19.58;3.13;;;;;;;;;;5069837;28;20024;-70
2022/10/04 00:53:48;;;;;;;14.93;2.08;;;;;;;;;;5070111;28;20036;-70
2022/10/04 00:56:27;;;;;;;12.65;2.00;;;;;;;;;;5070305;28;20056;-70
2022/10/04 00:58:53;;;;;;;14.98;2.35;;;;;;;;;;5070173;28;20138;-71
2022/10/04 01:01:22;;;;;;;20.45;2.60;;;;;;;;;;5070126;28;20034;-70
2022/10/04 01:03:51;;;;;;;13.75;2.60;;;;;;;;;;5070121;28;20028;-70
2022/10/04 01:06:19;;;;;;;17.73;2.22;;;;;;;;;;5069710;28;20500;-70
2022/10/04 01:08:50;;;;;;;14.73;2.88;;;;;;;;;;5069912;28;20037;-69
2022/10/04 01:11:33;;;;;;;15.32;2.85;;;;;;;;;;5070080;28;20120;-69
2022/10/04 01:14:10;;;;;;;17.92;2.97;;;;;;;;;;5069998;28;20036;-69
2022/10/04 01:16:37;;;;;;;15.98;2.47;;;;;;;;;;5070010;28;20047;-69
2022/10/04 01:19:20;;;;;;;20.08;3.00;;;;;;;;;;5069896;28;20107;-70
2022/10/04 01:21:47;;;;;;;17.23;2.83;;;;;;;;;;5071415;28;20099;-69
2022/10/04 01:24:20;;;;;;;11.50;2.20;;;;;;;;;;5073613;28;20056;-70
2022/10/04 01:26:45;;;;;;;13.88;2.72;;;;;;;;;;5063493;28;20049;-70
2022/10/04 01:29:22;;;;;;;9.98;2.40;;;;;;;;;;5055972;28;20044;-70
2022/10/04 01:31:50;;;;;;;12.10;2.60;;;;;;;;;;5055890;28;20035;-70
2022/10/04 01:34:22;;;;;;;13.82;2.40;;;;;;;;;;5055672;28;20036;-69
2022/10/04 01:36:50;;;;;;;15.57;2.65;;;;;;;;;;5055813;28;20029;-69
2022/10/04 01:39:17;;;;;;;15.32;2.75;;;;;;;;;;5055802;28;20028;-69
2022/10/04 01:42:30;;;;;;;13.38;2.45;;;;;;;;;;5055665;28;20021;-70
2022/10/04 01:45:08;;;;;;;19.92;2.72;;;;;;;;;;5033180;28;20049;-70
2022/10/04 01:47:56;;;;;;;16.63;2.83;;;;;;;;;;5033504;28;20037;-68
2022/10/04 01:50:33;;;;;;;11.55;2.40;;;;;;;;;;5033390;28;20103;-70
2022/10/04 01:53:18;;;;;;;14.48;3.03;;;;;;;;;;5033465;28;20025;-67
2022/10/04 01:55:49;;;;;;;13.82;2.22;;;;;;;;;;5033188;28;20084;-69
2022/10/04 01:58:24;;;;;;;16.13;2.95;;;;;;;;;;5033456;28;20496;-69
2022/10/04 02:01:03;;;;;;;16.83;2.60;;;;;;;;;;5033293;28;20491;-69
2022/10/04 02:03:34;;;;;;;13.38;2.22;;;;;;;;;;5033025;28;20041;-70
2022/10/04 02:06:03;;;;;;;20.13;2.90;;;;;;;;;;5033289;28;20039;-69
2022/10/04 02:08:32;;;;;;;15.00;2.78;;;;;;;;;;5033185;28;20105;-69
2022/10/04 02:11:00;;;;;;;19.02;3.30;;;;;;;;;;5032974;28;20064;-67
2022/10/04 02:13:32;;;;;;;14.55;2.80;;;;;;;;;;5033117;28;20087;-69
2022/10/04 02:15:58;;;;;;;16.50;3.38;;;;;;;;;;5046858;28;20037;-69
2022/10/04 02:18:25;;;;;;;12.93;3.28;;;;;;;;;;5054890;28;20090;-69
2022/10/04 02:20:52;;;;;;;17.52;2.60;;;;;;;;;;5054882;28;20013;-71
2022/10/04 02:23:20;;;;;;;19.08;3.30;;;;;;;;;;5055040;28;20036;-68
2022/10/04 02:25:45;;;;;;;12.80;2.72;;;;;;;;;;5054526;28;20041;-70
2022/10/04 02:28:12;;;;;;;15.13;3.20;;;;;;;;;;5054840;28;20048;-70
2022/10/04 02:32:56;;;;;;;15.52;3.10;;;;;;;;;;5054258;28;20033;-70
2022/10/04 02:33:30;;;;;;;13.50;2.97;;;;;;;;;;5053829;28;20029;-69
2022/10/04 02:35:57;;;;;;;16.48;3.00;;;;;;;;;;5053487;28;20035;-69
2022/10/04 02:38:27;;;;;;;13.40;2.50;;;;;;;;;;5054602;28;20032;-68
2022/10/04 02:41:09;;;;;;;14.30;2.50;;;;;;;;;;5054665;28;20394;-68
2022/10/04 02:43:58;;;;;;;16.73;3.80;;;;;;;;;;5054343;28;20052;-67
2022/10/04 02:46:45;;;;;;;14.63;3.17;;;;;;;;;;5054304;28;20029;-67
2022/10/04 02:49:57;;;;;;;17.00;2.92;;;;;;;;;;5054420;28;20104;-68
2022/10/04 02:52:37;;;;;;;13.77;2.63;;;;;;;;;;5055129;28;20033;-69
2022/10/04 02:55:18;;;;;;;14.25;3.20;;;;;;;;;;5054454;28;20047;-70
2022/10/04 02:57:44;;;;;;;15.07;4.07;;;;;;;;;;5054170;28;20352;-69
2022/10/04 03:00:18;;;;;;;14.75;2.83;;;;;;;;;;5054435;28;20082;-69
2022/10/04 03:03:11;;;;;;;15.27;3.22;;;;;;;;;;5054005;28;20029;-69
2022/10/04 03:05:38;;;;;;;21.48;3.47;;;;;;;;;;5054085;28;20032;-68
2022/10/04 03:08:04;;;;;;;18.92;3.72;;;;;;;;;;5054107;28;20427;-69
2022/10/04 03:10:31;;;;;;;19.33;3.30;;;;;;;;;;5054120;28;20462;-69
2022/10/04 03:12:56;;;;;;;18.02;3.63;;;;;;;;;;5053828;28;20036;-67
2022/10/04 03:15:22;;;;;;;14.50;2.63;;;;;;;;;;5053799;28;20032;-68
2022/10/04 03:17:49;;;;;;;24.15;3.10;;;;;;;;;;5053956;28;20091;-68
2022/10/04 03:20:20;;;;;;;15.77;2.95;;;;;;;;;;5053924;28;20037;-69
2022/10/04 03:22:49;;;;;;;13.55;3.60;;;;;;;;;;5053727;28;20498;-70
2022/10/04 03:25:20;;;;;;;11.20;2.85;;;;;;;;;;5053530;28;20067;-69
2022/10/04 03:27:47;;;;;;;16.13;2.92;;;;;;;;;;5053693;28;20386;-69
2022/10/04 03:30:14;;;;;;;11.70;2.70;;;;;;;;;;5053521;28;20032;-70
2022/10/04 03:32:41;;;;;;;15.15;3.17;;;;;;;;;;5053640;28;20029;-70
2022/10/04 03:35:19;;;;;;;17.67;3.83;;;;;;;;;;5053609;28;20029;-69
2022/10/04 03:37:45;;;;;;;15.80;3.60;;;;;;;;;;5053421;28;20502;-69
2022/10/04 03:40:11;;;;;;;16.85;3.60;;;;;;;;;;5053445;28;20027;-68
2022/10/04 03:42:38;;;;;;;9.88;3.28;;;;;;;;;;5053358;28;20104;-68
2022/10/04 03:45:10;;;;;;;11.32;3.05;;;;;;;;;;5050662;28;20051;-69
2022/10/04 03:47:39;;;;;;;12.13;3.45;;;;;;;;;;5053240;28;20036;-71
2022/10/04 03:50:27;;;;;;;10.73;2.75;;;;;;;;;;5053328;28;20032;-70
2022/10/04 03:52:57;;;;;;;19.13;3.97;;;;;;;;;;5053090;28;20033;-70
2022/10/04 03:55:37;;;;;;;19.17;3.60;;;;;;;;;;5053324;28;20045;-71
2022/10/04 03:58:04;;;;;;;;;;;;;;;;;;5053657;28;20386;-71
2022/10/04 04:00:30;;;;;;;16.42;3.15;;;;;;;;;;5052903;28;20321;-71
2022/10/04 04:03:03;;;;;;;11.02;3.10;;;;;;;;;;5052909;28;20048;-71
2022/10/04 04:06:05;;;;;;;10.88;2.97;;;;;;;;;;5053054;28;20453;-70
2022/10/04 04:08:38;;;;;;;18.42;3.50;;;;;;;;;;5030939;28;20041;-70
2022/10/04 04:11:06;;;;;;;12.25;3.03;;;;;;;;;;5030835;28;20090;-71
2022/10/04 04:13:45;;;;;;;12.68;3.38;;;;;;;;;;5030570;28;20034;-70
2022/10/04 04:16:11;;;;;;;13.75;2.92;;;;;;;;;;5030800;28;20463;-70
2022/10/04 04:18:42;;;;;;;15.73;3.00;;;;;;;;;;5030520;28;20079;-70
2022/10/04 04:21:07;;;;;;;19.00;3.17;;;;;;;;;;5030562;28;20472;-71
2022/10/04 04:23:40;;;;;;;16.08;3.15;;;;;;;;;;5030385;28;20052;-70
2022/10/04 04:26:36;;;;;;;14.10;3.85;;;;;;;;;;5030657;28;20041;-71
2022/10/04 04:29:10;;;;;;;14.82;2.90;;;;;;;;;;5030365;28;20486;-70
2022/10/04 04:31:58;;;;;;;6.32;2.58;;;;;;;;;;5030304;28;20052;-71
2022/10/04 04:34:43;;;;;;;9.68;2.85;;;;;;;;;;5030561;28;20102;-71
2022/10/04 04:37:09;;;;;;;17.20;3.97;;;;;;;;;;5030314;28;20045;-70
2022/10/04 04:39:43;;;;;;;21.33;3.83;;;;;;;;;;5030396;28;20395;-70
2022/10/04 04:42:09;;;;;;;9.70;3.25;;;;;;;;;;5030187;28;20108;-70
2022/10/04 04:44:45;;;;;;;15.63;3.10;;;;;;;;;;5031565;28;20137;-71
2022/10/04 04:47:29;;;;;;;12.25;3.03;;;;;;;;;;5048340;28;20033;-69
2022/10/04 04:49:57;;;;;;;11.38;3.28;;;;;;;;;;5052340;28;20017;-70
2022/10/04 04:52:27;;;;;;;12.90;3.10;;;;;;;;;;5052483;28;20020;-70
2022/10/04 04:54:54;;;;;;;11.93;2.88;;;;;;;;;;5052412;28;20036;-71
2022/10/04 04:57:20;;;;;;;14.70;3.35;;;;;;;;;;5051746;28;20037;-70
2022/10/04 04:59:50;;;;;;;12.85;2.97;;;;;;;;;;5052355;28;20105;-69
2022/10/04 05:02:35;;;;;;;11.88;3.35;;;;;;;;;;5052331;28;20040;-71
2022/10/04 05:05:20;;;;;;;10.32;2.70;;;;;;;;;;5051956;28;20033;-70
2022/10/04 05:07:46;;;;;;;11.38;3.05;;;;;;;;;;5052146;28;20025;-71
2022/10/04 05:10:20;;;;;;;12.88;3.15;;;;;;;;;;5052179;28;20021;-69
2022/10/04 05:12:46;;;;;;;12.10;3.42;;;;;;;;;;5051959;28;20040;-70
2022/10/04 05:15:11;;;;;;;10.00;3.13;;;;;;;;;;5051954;28;20135;-69
2022/10/04 05:17:37;;;;;;;15.60;3.15;;;;;;;;;;5051979;28;20056;-71
2022/10/04 05:20:03;;;;;;;11.73;2.90;;;;;;;;;;5052151;28;20021;-70
2022/10/04 05:22:31;;;;;;;12.07;3.00;;;;;;;;;;5051979;28;20029;-70
2022/10/04 05:25:01;;;;;;;12.50;2.78;;;;;;;;;;5051727;28;20025;-69
2022/10/04 05:27:34;;;;;;;;;;;;;;;;;;5052118;28;20021;-70
2022/10/04 05:30:15;;;;;;;12.35;3.00;;;;;;;;;;5051883;28;19920;-70
2022/10/04 05:33:03;;;;;;;14.30;3.10;;;;;;;;;;5051895;28;20108;-70
2022/10/04 05:35:41;;;;;;;12.02;3.05;;;;;;;;;;5051945;28;20083;-69
2022/10/04 05:38:22;;;;;;;15.48;3.05;;;;;;;;;;5051661;28;20485;-71
2022/10/04 05:41:03;;;;;;;12.95;3.22;;;;;;;;;;5051530;28;20048;-68
2022/10/04 05:43:43;;;;;;;17.73;3.65;;;;;;;;;;5051214;28;20052;-68
2022/10/04 05:46:14;;;;;;;12.45;4.78;;;;;;;;;;5051788;28;20036;-70
2022/10/04 05:48:42;;;;;;;19.27;12.02;;;;;;;;;;5051805;28;20033;-71
2022/10/04 05:51:52;;;;;;;11.60;5.35;;;;;;;;;;5051604;28;20025;-69
2022/10/04 05:54:23;;;;;;;19.40;5.57;;;;;;;;;;5029577;28;20029;-69
2022/10/04 05:56:56;;;;;;;14.40;3.20;;;;;;;;;;5029034;28;20044;-69
2022/10/04 05:59:37;;;;;;;17.52;4.25;;;;;;;;;;5029651;28;20040;-70
2022/10/04 06:02:11;;;;;;;15.95;5.40;;;;;;;;;;5028834;28;20048;-68
2022/10/04 06:05:14;;;;;;;12.82;5.15;;;;;;;;;;5029532;28;20026;-68
2022/10/04 06:07:45;;;;;;;18.35;3.75;;;;;;;;;;5029478;28;20099;-67
2022/10/04 06:10:45;;;;;;;16.88;5.10;;;;;;;;;;5032778;28;20030;-70
2022/10/04 06:13:50;;;;;;;20.08;8.07;;;;;;;;;;5033066;28;20485;-69
2022/10/04 06:16:36;;;;;;;17.05;7.25;;;;;;;;;;5032826;28;20044;-70
2022/10/04 06:19:35;;;;;;;13.98;4.50;;;;;;;;;;5032930;28;20029;-68
2022/10/04 06:22:17;;;;;;;14.45;3.35;;;;;;;;;;5032737;28;20037;-70
2022/10/04 06:24:59;;;;;;;9.98;2.67;;;;;;;;;;5032243;28;20034;-69
2022/10/04 06:27:31;;;;;;;8.90;2.65;;;;;;;;;;5033074;28;20037;-70
2022/10/04 06:30:13;;;;;;;13.65;2.80;;;;;;;;;;5034877;28;20501;-70
2022/10/04 06:32:50;;;;;;;10.55;3.08;;;;;;;;;;5034719;28;20029;-71
2022/10/04 06:35:34;;;;;;;8.27;2.08;;;;;;;;;;5046007;28;20115;-69
2022/10/04 06:38:09;;;;;;;13.52;2.60;;;;;;;;;;5034711;28;20099;-70
2022/10/04 06:41:01;;;;;;;12.60;2.60;;;;;;;;;;5034725;28;20430;-69
2022/10/04 06:43:45;;;;;;;13.02;3.00;;;;;;;;;;5034520;28;20406;-70
2022/10/04 06:46:21;;;;;;;21.63;4.53;;;;;;;;;;5034518;28;20029;-68
2022/10/04 06:48:46;;;;;;;10.05;2.30;;;;;;;;;;5034607;28;20021;-70
2022/10/04 06:51:31;;;;;;;14.38;2.22;;;;;;;;;;5034420;28;20031;-70
2022/10/04 06:54:50;;;;;;;12.77;2.17;;;;;;;;;;5034384;28;20025;-70
2022/10/04 06:57:31;;;;;;;9.23;2.25;;;;;;;;;;5011964;28;20041;-70
2022/10/04 07:00:08;;;;;;;14.60;2.30;;;;;;;;;;5012322;28;20026;-70
2022/10/04 07:02:57;;;;;;;10.25;2.35;;;;;;;;;;5012321;28;20057;-70
2022/10/04 07:05:44;;;;;;;17.38;2.72;;;;;;;;;;5012268;28;20054;-71
2022/10/04 07:08:29;;;;;;;15.27;3.30;;;;;;;;;;5012123;28;20119;-69
2022/10/04 07:10:57;;;;;;;12.02;2.10;;;;;;;;;;5012057;28;20623;-71
2022/10/04 07:13:40;;;;;;;10.25;2.20;;;;;;;;;;5012143;28;20037;-72
2022/10/04 07:16:26;;;;;;;11.82;2.50;;;;;;;;;;5011973;28;20522;-71
2022/10/04 07:19:09;;;;;;;7.93;2.15;;;;;;;;;;5011993;28;20415;-71
2022/10/04 07:22:07;;;;;;;10.07;2.03;;;;;;;;;;5023035;28;20041;-71
2022/10/04 07:24:38;;;;;;;15.10;1.95;;;;;;;;;;4991058;28;20661;-71
2022/10/04 07:27:08;;;;;;;13.10;2.40;;;;;;;;;;4992241;28;20539;-71
2022/10/04 07:29:40;;;;;;;;;;;;;;;;;;4992869;28;20046;-71
2022/10/04 07:32:05;;;;;;;10.10;2.00;;;;;;;;;;4994333;28;19918;-72
2022/10/04 07:34:42;;;;;;;10.63;1.75;;;;;;;;;;5000767;28;20037;-72
2022/10/04 07:37:11;;;;;;;9.30;1.92;;;;;;;;;;4991817;28;20062;-72
2022/10/04 07:39:46;;;;;;;8.98;1.77;;;;;;;;;;4991866;28;20113;-70
2022/10/04 07:42:31;;;;;;;5.35;1.67;;;;;;;;;;4992099;28;20034;-71
2022/10/04 07:45:07;;;;;;;13.30;2.05;;;;;;;;;;4991526;28;20230;-69
2022/10/04 07:47:33;;;;;;;11.57;2.10;;;;;;;;;;4991834;28;20440;-72
2022/10/04 07:49:58;;;;;;;9.50;2.17;;;;;;;;;;4991948;28;20579;-72
2022/10/04 07:52:46;;;;;;;11.38;2.05;;;;;;;;;;4991698;28;20034;-72
2022/10/04 07:55:41;;;;;;;10.18;1.92;;;;;;;;;;4991939;28;20035;-72
2022/10/04 07:58:28;;;;;;;13.10;2.47;;;;;;;;;;4972276;28;20038;-71
2022/10/04 08:00:59;;;;;;;11.60;2.25;;;;;;;;;;4979379;28;20054;-72
2022/10/04 08:03:31;;;;;;;8.40;2.10;;;;;;;;;;4991547;28;20316;-71
2022/10/04 08:06:11;;;;;;;12.27;2.25;;;;;;;;;;4991382;28;20034;-71
2022/10/04 08:09:02;;;;;;;11.15;2.13;;;;;;;;;;4991189;28;20038;-71
2022/10/04 08:11:46;;;;;;;14.90;2.22;;;;;;;;;;4991178;28;20092;-71
2022/10/04 08:14:22;;;;;;;9.05;1.90;;;;;;;;;;5007732;28;20431;-72
2022/10/04 08:17:13;;;;;;;9.98;1.95;;;;;;;;;;4991428;28;20034;-72
2022/10/04 08:20:00;;;;;;;7.90;1.90;;;;;;;;;;4991218;28;20038;-72
2022/10/04 08:22:29;;;;;;;7.70;1.70;;;;;;;;;;4991269;28;20038;-69
2022/10/04 08:25:12;;;;;;;7.35;1.65;;;;;;;;;;4991186;28;20085;-69
2022/10/04 08:27:37;;;;;;;12.32;2.47;;;;;;;;;;4991144;28;20042;-72
2022/10/04 08:30:15;;;;;;;14.70;2.50;;;;;;;;;;5007578;28;20562;-72
2022/10/04 08:33:00;;;;;;;11.85;1.95;;;;;;;;;;4990963;28;20117;-72
2022/10/04 08:35:33;;;;;;;9.80;2.30;;;;;;;;;;5027298;28;20073;-72
2022/10/04 08:37:58;;;;;;;11.32;2.25;;;;;;;;;;5032598;28;20017;-70
2022/10/04 08:41:00;;;;;;;9.60;2.20;;;;;;;;;;5032551;28;20017;-71
2022/10/04 08:43:48;;;;;;;8.05;2.08;;;;;;;;;;5032268;28;20069;-72
2022/10/04 08:46:45;;;;;;;13.75;2.33;;;;;;;;;;5032499;28;20030;-71
2022/10/04 08:49:20;;;;;;;13.23;1.88;;;;;;;;;;5032374;28;20030;-71
2022/10/04 08:51:54;;;;;;;13.32;2.55;;;;;;;;;;5032011;28;20493;-71
2022/10/04 08:54:31;;;;;;;11.07;2.45;;;;;;;;;;5032510;28;20061;-71
2022/10/04 08:57:10;;;;;;;8.00;2.10;;;;;;;;;;5032379;28;20144;-69
2022/10/04 08:59:56;;;;;;;12.55;2.13;;;;;;;;;;5032344;28;20029;-70
2022/10/04 09:02:46;;;;;;;9.20;1.75;;;;;;;;;;5032474;28;20037;-70
2022/10/04 09:05:42;;;;;;;8.50;1.98;;;;;;;;;;5032093;28;20383;-70
2022/10/04 09:08:08;;;;;;;5.82;1.58;;;;;;;;;;5032182;28;20434;-69
2022/10/04 09:10:35;;;;;;;7.85;1.70;;;;;;;;;;5032404;28;20079;-68
2022/10/04 09:13:38;;;;;;;8.57;1.73;;;;;;;;;;5032267;28;20026;-69
2022/10/04 09:16:39;;;;;;;10.13;1.80;;;;;;;;;;5032140;28;20036;-71
2022/10/04 09:19:43;;;;;;;7.35;1.70;;;;;;;;;;5032132;28;20028;-69
2022/10/04 09:22:43;;;;;;;9.63;1.67;;;;;;;;;;5045782;28;20037;-70
2022/10/04 09:25:24;;;;;;;6.82;1.73;;;;;;;;;;5046858;28;20068;-70
2022/10/04 09:28:08;;;;;;;5.75;1.30;;;;;;;;;;5051992;28;20041;-69
2022/10/04 09:31:28;;;;;;;17.08;2.25;;;;;;;;;;5052184;28;20028;-69
2022/10/04 09:33:58;;;;;;;11.05;1.60;;;;;;;;;;5051889;28;20025;-67
2022/10/04 09:36:26;;;;;;;6.18;1.60;;;;;;;;;;5051880;28;20032;-69
2022/10/04 09:39:16;;;;;;;8.98;1.50;;;;;;;;;;5051821;28;20053;-69
2022/10/04 09:42:00;;;;;;;6.22;1.63;;;;;;;;;;5051890;28;20060;-68
2022/10/04 09:44:46;;;;;;;7.22;1.40;;;;;;;;;;5054117;28;20045;-70
2022/10/04 09:47:44;;;;;;;9.05;1.80;;;;;;;;;;5055182;28;20082;-71
2022/10/04 09:50:34;;;;;;;12.77;1.70;;;;;;;;;;5055723;28;20032;-68
2022/10/04 09:53:19;;;;;;;6.00;1.92;;;;;;;;;;5052139;28;20029;-70
2022/10/04 09:55:50;;;;;;;10.15;1.63;;;;;;;;;;5055141;28;20041;-69
2022/10/04 09:58:28;;;;;;;7.95;1.50;;;;;;;;;;5055496;28;20033;-69
2022/10/04 10:01:15;;;;;;;4.85;1.38;;;;;;;;;;5055505;28;20045;-68
2022/10/04 10:03:57;;;;;;;9.88;1.85;;;;;;;;;;5055236;28;20017;-70
2022/10/04 10:06:50;;;;;;;9.60;1.77;;;;;;;;;;5055375;28;20040;-69
2022/10/04 10:15:57;;;;;;;5.53;1.75;;;;;;;;;;5054972;28;20075;-69
2022/10/04 10:18:50;;;;;;;8.70;1.83;;;;;;;;;;5054949;28;20040;-67
2022/10/04 10:21:30;;;;;;;8.20;1.45;;;;;;;;;;5054847;28;20033;-69
2022/10/04 10:24:07;;;;;;;;;;;;;;;;;;5055526;28;20040;-71
2022/10/04 10:26:47;;;;;;;10.63;2.08;;;;;;;;;;5054857;28;20004;-74
2022/10/04 10:29:28;;;;;;;8.00;1.80;;;;;;;;;;5054899;28;20025;-69
2022/10/04 10:32:16;;;;;;;7.30;1.60;;;;;;;;;;5055726;28;20385;-71
2022/10/04 10:35:10;;;;;;;6.63;1.60;;;;;;;;;;5033646;28;20045;-71
2022/10/04 10:37:54;;;;;;;7.35;1.55;;;;;;;;;;5032521;28;20033;-69
2022/10/04 10:41:02;;;;;;;8.70;1.58;;;;;;;;;;5032677;28;20029;-70
2022/10/04 10:43:40;;;;;;;7.45;1.80;;;;;;;;;;5032384;28;20096;-72
2022/10/04 10:46:26;;;;;;;6.65;1.33;;;;;;;;;;5015525;28;20545;-72
2022/10/04 10:49:03;;;;;;;9.55;1.50;;;;;;;;;;5032360;28;20039;-73
2022/10/04 10:51:44;;;;;;;6.25;1.48;;;;;;;;;;5015619;28;20430;-71
2022/10/04 10:54:32;;;;;;;8.45;1.90;;;;;;;;;;5032023;28;20411;-71
2022/10/04 10:57:35;;;;;;;4.70;1.35;;;;;;;;;;5032372;28;21008;-71
2022/10/04 11:00:23;;;;;;;7.35;1.50;;;;;;;;;;5032170;28;20056;-71
2022/10/04 11:03:07;;;;;;;9.48;1.88;;;;;;;;;;5032154;28;20057;-70
2022/10/04 11:05:57;;;;;;;10.85;1.98;;;;;;;;;;5031733;28;20041;-71
2022/10/04 11:08:47;;;;;;;9.20;1.67;;;;;;;;;;5032260;28;20068;-71
2022/10/04 11:11:38;;;;;;;9.85;2.28;;;;;;;;;;5031777;28;20056;-71
2022/10/04 11:14:42;;;;;;;9.57;1.73;;;;;;;;;;5053789;28;20036;-73
2022/10/04 11:17:19;;;;;;;8.75;2.28;;;;;;;;;;5054001;28;20021;-72
2022/10/04 11:19:57;;;;;;;11.52;2.67;;;;;;;;;;5053949;28;20021;-73
2022/10/04 11:22:43;;;;;;;10.77;1.55;;;;;;;;;;5053679;28;20522;-71
2022/10/04 11:25:28;;;;;;;8.25;1.60;;;;;;;;;;5053416;28;20124;-69
2022/10/04 11:28:29;;;;;;;8.00;1.77;;;;;;;;;;5053752;28;20064;-71
2022/10/04 11:30:57;;;;;;;8.13;1.60;;;;;;;;;;5053658;28;20048;-70
2022/10/04 11:33:38;;;;;;;9.45;2.30;;;;;;;;;;5053512;28;20096;-69
2022/10/04 11:36:33;;;;;;;10.30;2.50;;;;;;;;;;5053480;28;20104;-70
2022/10/04 11:39:36;;;;;;;12.65;2.25;;;;;;;;;;5053518;28;20087;-70
2022/10/04 11:42:04;;;;;;;8.25;2.00;;;;;;;;;;5053462;28;20017;-70
2022/10/04 11:44:58;;;;;;;7.50;1.58;;;;;;;;;;5052875;28;20049;-70
2022/10/04 11:47:54;;;;;;;4.18;1.70;;;;;;;;;;5053319;28;20366;-70
2022/10/04 11:50:58;;;;;;;7.45;2.05;;;;;;;;;;5053390;28;20084;-70
2022/10/04 11:53:57;;;;;;;8.63;2.55;;;;;;;;;;5053034;28;20029;-69
2022/10/04 11:56:22;;;;;;;6.95;2.10;;;;;;;;;;5053293;28;20057;-72
2022/10/04 11:58:53;;;;;;;8.35;2.35;;;;;;;;;;5053045;28;20060;-70
2022/10/04 12:01:21;;;;;;;13.95;2.65;;;;;;;;;;5053105;28;20385;-70
2022/10/04 12:04:13;;;;;;;7.40;1.98;;;;;;;;;;5052996;28;20029;-72
2022/10/04 12:07:25;;;;;;;11.07;2.15;;;;;;;;;;5052275;28;20033;-67
2022/10/04 12:09:56;;;;;;;10.23;2.10;;;;;;;;;;5052939;28;20036;-70
2022/10/04 12:12:37;;;;;;;6.13;1.70;;;;;;;;;;5052846;28;20095;-69
2022/10/04 12:15:17;;;;;;;10.07;2.35;;;;;;;;;;5052824;28;20036;-70
2022/10/04 12:18:22;;;;;;;7.55;2.00;;;;;;;;;;5052817;28;20051;-68
2022/10/04 12:21:02;;;;;;;11.68;2.40;;;;;;;;;;5052597;28;20021;-70
2022/10/04 12:23:43;;;;;;;12.25;2.10;;;;;;;;;;5052609;28;20028;-67
2022/10/04 12:26:30;;;;;;;5.82;2.00;;;;;;;;;;5032335;28;20049;-70
2022/10/04 12:29:23;;;;;;;8.80;1.63;;;;;;;;;;5032702;28;20478;-70
2022/10/04 12:31:53;;;;;;;8.48;1.60;;;;;;;;;;5031331;28;20342;-70
2022/10/04 12:34:20;;;;;;;;;;;;;;;;;;5033158;28;20017;-70
2022/10/04 12:37:12;;;;;;;9.65;2.03;;;;;;;;;;5032553;28;19917;-71
2022/10/04 12:39:43;;;;;;;8.90;1.73;;;;;;;;;;5030153;28;20037;-68
2022/10/04 12:42:27;;;;;;;10.18;2.35;;;;;;;;;;5030267;28;20064;-70
2022/10/04 12:45:11;;;;;;;9.63;2.00;;;;;;;;;;5030086;28;20124;-69
2022/10/04 12:47:48;;;;;;;8.00;1.70;;;;;;;;;;5013471;28;20243;-71
2022/10/04 12:50:26;;;;;;;6.40;1.80;;;;;;;;;;5030183;28;20120;-71
2022/10/04 12:53:30;;;;;;;5.05;1.40;;;;;;;;;;5030185;28;20053;-70
2022/10/04 12:56:07;;;;;;;7.95;1.83;;;;;;;;;;4990728;28;20484;-71
2022/10/04 12:58:45;;;;;;;5.85;1.35;;;;;;;;;;4991065;28;20135;-69
2022/10/04 13:01:44;;;;;;;5.40;1.33;;;;;;;;;;4990896;28;20128;-70
2022/10/04 13:04:44;;;;;;;6.20;1.58;;;;;;;;;;4990862;28;20155;-70
2022/10/04 13:07:18;;;;;;;9.65;3.13;;;;;;;;;;4951994;28;20083;-70
2022/10/04 13:10:22;;;;;;;4.93;2.00;;;;;;;;;;4951884;28;20432;-70
2022/10/04 13:13:12;;;;;;;7.65;1.98;;;;;;;;;;4948101;29;20043;-68
2022/10/04 13:15:50;;;;;;;5.75;1.90;;;;;;;;;;4951835;29;20039;-68
2022/10/04 13:18:37;;;;;;;4.95;1.30;;;;;;;;;;4954362;28;20035;-70
2022/10/04 13:21:07;;;;;;;6.65;1.30;;;;;;;;;;4960409;28;20038;-68
2022/10/04 13:23:48;;;;;;;5.47;1.17;;;;;;;;;;4974853;28;20031;-69
2022/10/04 13:26:31;;;;;;;6.30;1.45;;;;;;;;;;4958522;28;20039;-67
2022/10/04 13:29:01;;;;;;;6.15;1.40;;;;;;;;;;4975061;28;21126;-71
2022/10/04 13:31:35;;;;;;;7.53;1.98;;;;;;;;;;4975101;28;20072;-67
2022/10/04 13:34:10;;;;;;;4.22;1.30;;;;;;;;;;5013555;28;20030;-72
2022/10/04 13:36:59;;;;;;;6.00;1.42;;;;;;;;;;5013979;28;20069;-68
2022/10/04 13:39:46;;;;;;;3.47;1.10;;;;;;;;;;5016054;28;20038;-68
2022/10/04 13:42:24;;;;;;;5.57;1.30;;;;;;;;;;5013863;28;20030;-69
2022/10/04 13:44:57;;;;;;;5.45;1.45;;;;;;;;;;5033597;28;20041;-69
2022/10/04 13:47:35;;;;;;;4.07;1.20;;;;;;;;;;5035321;28;20021;-72
2022/10/04 13:50:41;;;;;;;8.02;1.77;;;;;;;;;;5035564;28;20030;-72
2022/10/04 13:56:39;;;;;;;7.13;3.53;;;;;;;;;;5053449;28;20032;-72
2022/10/04 13:59:49;;;;;;;5.22;1.27;;;;;;;;;;5053333;28;20119;-72
2022/10/04 14:02:45;;;;;;;7.30;1.45;;;;;;;;;;5013391;28;20038;-71
2022/10/04 14:05:23;;;;;;;4.47;1.40;;;;;;;;;;5013374;28;20045;-71
2022/10/04 14:07:57;;;;;;;5.55;1.25;;;;;;;;;;5012977;28;20034;-71
2022/10/04 14:10:44;;;;;;;5.53;1.50;;;;;;;;;;5013240;28;20040;-72
2022/10/04 14:13:59;;;;;;;7.18;1.40;;;;;;;;;;5013348;28;20492;-72
2022/10/04 14:16:42;;;;;;;10.45;1.73;;;;;;;;;;4993480;28;20195;-71
2022/10/04 14:19:25;;;;;;;6.35;1.88;;;;;;;;;;4993673;28;20424;-72
2022/10/04 14:22:03;;;;;;;7.35;1.70;;;;;;;;;;4982495;28;20034;-71
2022/10/04 14:24:34;;;;;;;5.65;1.60;;;;;;;;;;4988031;28;20077;-72
2022/10/04 14:27:19;;;;;;;11.63;1.58;;;;;;;;;;4993407;28;20035;-72
2022/10/04 14:29:59;;;;;;;11.25;2.47;;;;;;;;;;4992477;28;20027;-71
2022/10/04 14:32:59;;;;;;;6.03;1.25;;;;;;;;;;4993141;28;20049;-72
2022/10/04 14:35:39;;;;;;;6.93;1.33;;;;;;;;;;4993332;28;20475;-72
2022/10/04 14:38:07;;;;;;;;;;;;;;;;;;4993445;28;20138;-72
2022/10/04 14:41:06;;;;;;;8.55;1.50;;;;;;;;;;4993183;28;19913;-72
2022/10/04 14:44:09;;;;;;;5.65;1.33;;;;;;;;;;4992876;28;20463;-72
2022/10/04 14:46:49;;;;;;;7.03;1.25;;;;;;;;;;4990385;28;20117;-71
2022/10/04 14:49:21;;;;;;;3.88;1.33;;;;;;;;;;4993171;28;20089;-71
2022/10/04 14:52:24;;;;;;;5.80;1.70;;;;;;;;;;4996025;28;20543;-72
2022/10/04 14:54:54;;;;;;;7.32;1.45;;;;;;;;;;5034398;28;20029;-71
2022/10/04 14:57:50;;;;;;;7.93;2.08;;;;;;;;;;5034438;28;20052;-72
2022/10/04 15:00:22;;;;;;;11.60;1.48;;;;;;;;;;5034374;28;20177;-71
2022/10/04 15:02:53;;;;;;;6.43;1.67;;;;;;;;;;5034187;28;20035;-72
2022/10/04 15:05:19;;;;;;;8.70;1.40;;;;;;;;;;5034245;28;20029;-71
2022/10/04 15:07:48;;;;;;;8.80;1.80;;;;;;;;;;5033949;28;20425;-71
2022/10/04 15:10:35;;;;;;;4.15;1.65;;;;;;;;;;5034361;28;20105;-71
2022/10/04 15:13:16;;;;;;;9.73;2.10;;;;;;;;;;5034192;28;20034;-71
2022/10/04 15:16:19;;;;;;;7.50;1.58;;;;;;;;;;5034081;28;20060;-71
2022/10/04 15:18:53;;;;;;;4.75;1.50;;;;;;;;;;5032749;28;20022;-70
2022/10/04 15:21:40;;;;;;;6.82;1.65;;;;;;;;;;5040597;28;20028;-70
2022/10/04 15:24:22;;;;;;;9.48;2.10;;;;;;;;;;5053926;28;20491;-72
2022/10/04 15:27:25;;;;;;;5.78;1.73;;;;;;;;;;5053797;28;20033;-71
2022/10/04 15:29:53;;;;;;;5.15;1.70;;;;;;;;;;5053717;28;20438;-71
2022/10/04 15:32:33;;;;;;;6.97;1.85;;;;;;;;;;5053668;28;20033;-71
2022/10/04 15:35:05;;;;;;;;;;;;;;;;;;5052939;28;20072;-71
2022/10/04 15:37:48;;;;;;;3.75;1.55;;;;;;;;;;5053609;28;19916;-69
2022/10/04 15:40:28;;;;;;;5.70;1.83;;;;;;;;;;5053707;28;20504;-71
2022/10/04 15:42:59;;;;;;;3.75;1.85;;;;;;;;;;5053712;28;20029;-71
2022/10/04 15:45:37;;;;;;;6.93;2.03;;;;;;;;;;5053274;28;20029;-71
2022/10/04 15:48:10;;;;;;;5.30;2.00;;;;;;;;;;5053146;28;20096;-70
2022/10/04 15:50:47;;;;;;;8.02;1.88;;;;;;;;;;5053171;28;20029;-72
2022/10/04 15:53:31;;;;;;;6.45;2.28;;;;;;;;;;5053427;28;20438;-71
2022/10/04 15:56:07;;;;;;;7.43;2.30;;;;;;;;;;5053146;28;20036;-71
2022/10/04 15:58:54;;;;;;;11.18;3.30;;;;;;;;;;5053236;28;20017;-72
2022/10/04 16:01:41;;;;;;;7.60;2.53;;;;;;;;;;5053046;28;20025;-71
2022/10/04 16:04:33;;;;;;;6.25;2.40;;;;;;;;;;5052848;28;20040;-72